京浜ソアリングクラブ掲示板

<<グライダー体験飛行はこちら>>


   ページ指定:[ 1 / ]


画像タイトル:img20191125162045.jpg -(198 KB)

11/25朝 NRT空港だそうです 2019/11/25,16:20 No.9780
NHK・TVより
>> 濃霧 Chi・Cago 2019/11/25,23:40 No.9781
METARを拾ってみました。
RJAA 242230Z VRB01KT 0100 R16R/0450V0600N R16L/0300N FG VV001 14/14 Q1014 BECMG FM2330 2000 BR FEW003 BKN005 RMK A2994


[返信しないで戻る]